createdAt,value
2023-05-23T00:00:45.235Z,20.17
2023-05-23T00:01:25.308Z,20.16
2023-05-23T00:02:07.282Z,20.03
2023-05-23T00:02:47.524Z,20.13
2023-05-23T00:03:29.301Z,20.13
2023-05-23T00:04:10.471Z,19.99
2023-05-23T00:04:51.197Z,20.07
2023-05-23T00:05:31.327Z,20.08
2023-05-23T00:06:13.280Z,20.07
2023-05-23T00:06:53.607Z,19.95
2023-05-23T00:07:34.196Z,19.85
2023-05-23T00:08:14.272Z,19.92
2023-05-23T00:08:55.189Z,19.95
2023-05-23T00:09:49.191Z,19.96
2023-05-23T00:10:43.219Z,19.79
2023-05-23T00:11:33.247Z,19.89
2023-05-23T00:12:07.251Z,19.87
2023-05-23T00:12:54.200Z,19.92
2023-05-23T00:13:28.289Z,19.84
2023-05-23T00:14:15.214Z,19.87
2023-05-23T00:14:49.474Z,19.74
2023-05-23T00:15:36.199Z,19.76
2023-05-23T00:16:10.452Z,19.76
2023-05-23T00:16:58.233Z,19.75
2023-05-23T00:17:32.287Z,19.74
2023-05-23T00:18:21.177Z,19.72
2023-05-23T00:18:57.609Z,19.58
2023-05-23T00:19:45.188Z,19.80
2023-05-23T00:20:19.297Z,19.77
2023-05-23T00:21:06.196Z,19.75
2023-05-23T00:21:40.439Z,19.78
2023-05-23T00:22:23.253Z,19.70
2023-05-23T00:23:03.656Z,19.79
2023-05-23T00:23:43.180Z,19.69
2023-05-23T00:24:23.258Z,19.84
2023-05-23T00:25:04.176Z,19.84
2023-05-23T00:25:48.301Z,19.81
2023-05-23T00:26:30.209Z,19.79
2023-05-23T00:27:11.275Z,19.72
2023-05-23T00:27:51.193Z,19.69
2023-05-23T00:28:31.318Z,19.78
2023-05-23T00:29:11.188Z,19.83
2023-05-23T00:29:51.295Z,19.74
2023-05-23T00:30:32.180Z,19.57
2023-05-23T00:31:12.311Z,19.62
2023-05-23T00:31:53.199Z,19.59
2023-05-23T00:32:33.382Z,19.56
2023-05-23T00:33:13.213Z,19.63
2023-05-23T00:33:53.285Z,19.69
2023-05-23T00:34:34.197Z,19.72
2023-05-23T00:35:15.427Z,19.68
2023-05-23T00:35:56.190Z,19.67
2023-05-23T00:36:37.760Z,19.61
2023-05-23T00:37:18.175Z,19.58
2023-05-23T00:37:58.278Z,19.50
2023-05-23T00:38:39.210Z,19.51
2023-05-23T00:39:20.357Z,19.61
2023-05-23T00:40:02.183Z,19.56
2023-05-23T00:40:42.306Z,19.54
2023-05-23T00:41:25.170Z,19.62
2023-05-23T00:42:05.640Z,19.48
2023-05-23T00:42:46.175Z,19.52
2023-05-23T00:43:26.309Z,19.56
2023-05-23T00:44:06.190Z,19.57
2023-05-23T00:44:48.366Z,19.56
2023-05-23T00:45:29.181Z,19.33
2023-05-23T00:46:09.340Z,19.28
2023-05-23T00:46:52.349Z,19.43
2023-05-23T00:47:32.310Z,19.28
2023-05-23T00:48:13.180Z,19.34
2023-05-23T00:48:53.540Z,19.31
2023-05-23T00:49:34.200Z,19.19
2023-05-23T00:50:18.262Z,19.32
2023-05-23T00:51:00.192Z,19.28
2023-05-23T00:51:43.064Z,19.14
2023-05-23T00:52:24.187Z,19.33
2023-05-23T00:53:06.264Z,19.24
2023-05-23T00:53:46.155Z,19.34
2023-05-23T00:54:33.316Z,19.27
2023-05-23T00:55:16.178Z,19.29
2023-05-23T00:55:56.704Z,19.30
2023-05-23T00:56:38.152Z,19.25
2023-05-23T00:57:18.379Z,19.29
2023-05-23T00:58:03.192Z,19.33
2023-05-23T00:58:43.249Z,19.29
2023-05-23T00:59:24.170Z,19.22
2023-05-23T01:00:04.432Z,19.23
2023-05-23T01:00:45.285Z,19.24
2023-05-23T01:01:25.868Z,19.20
2023-05-23T01:02:08.229Z,19.18
2023-05-23T01:02:53.641Z,19.15
2023-05-23T01:03:36.261Z,19.29
2023-05-23T01:04:16.868Z,19.23
2023-05-23T01:05:01.175Z,19.15
2023-05-23T01:05:41.955Z,19.16
2023-05-23T01:06:24.228Z,19.15
2023-05-23T01:07:04.252Z,19.09
2023-05-23T01:07:45.195Z,19.27
2023-05-23T01:08:25.303Z,19.26
2023-05-23T01:09:09.154Z,19.11
2023-05-23T01:09:49.235Z,19.15
2023-05-23T01:10:39.144Z,19.15
2023-05-23T01:11:37.191Z,19.12
2023-05-23T01:12:52.172Z,19.11
2023-05-23T01:14:01.161Z,18.93
2023-05-23T01:14:58.151Z,18.97
2023-05-23T01:16:16.171Z,18.76
2023-05-23T01:17:24.188Z,18.88
2023-05-23T01:18:17.791Z,18.81
2023-05-23T01:19:29.174Z,18.95
2023-05-23T01:20:20.227Z,18.87
2023-05-23T01:21:04.135Z,18.91
2023-05-23T01:21:46.363Z,18.84
2023-05-23T01:22:40.164Z,18.90
2023-05-23T01:23:30.300Z,18.92
2023-05-23T01:24:50.149Z,18.82
2023-05-23T01:26:07.045Z,18.80
2023-05-23T01:27:09.130Z,18.70
2023-05-23T01:28:07.152Z,18.77
2023-05-23T01:29:05.159Z,18.69
2023-05-23T01:30:01.157Z,18.75
2023-05-23T01:30:58.132Z,18.74
2023-05-23T01:31:57.204Z,18.66
2023-05-23T01:32:52.143Z,18.81
2023-05-23T01:33:34.156Z,18.74
2023-05-23T01:34:17.050Z,18.77
2023-05-23T01:35:00.212Z,18.86
2023-05-23T01:35:40.546Z,18.76
2023-05-23T01:36:22.122Z,18.86
2023-05-23T01:37:02.261Z,18.74
2023-05-23T01:37:43.161Z,18.83
2023-05-23T01:38:23.228Z,18.83
2023-05-23T01:39:03.168Z,18.65
2023-05-23T01:39:44.264Z,18.73
2023-05-23T01:40:24.125Z,18.80
2023-05-23T01:41:05.506Z,18.60
2023-05-23T01:41:46.128Z,18.77
2023-05-23T01:42:28.075Z,18.78
2023-05-23T01:43:09.108Z,18.65
2023-05-23T01:43:49.225Z,18.68
2023-05-23T01:44:29.151Z,18.62
2023-05-23T01:45:09.266Z,18.58
2023-05-23T01:45:50.134Z,18.54
2023-05-23T01:46:31.253Z,18.51
2023-05-23T01:47:14.127Z,18.49
2023-05-23T01:47:56.362Z,18.57
2023-05-23T01:48:37.235Z,18.56
2023-05-23T01:49:20.271Z,18.52
2023-05-23T01:50:02.195Z,18.44
2023-05-23T01:50:45.420Z,18.57
2023-05-23T01:51:25.213Z,18.60
2023-05-23T01:52:10.130Z,18.64
2023-05-23T01:52:50.114Z,18.52
2023-05-23T01:53:31.457Z,18.61
2023-05-23T01:54:12.124Z,18.57
2023-05-23T01:54:52.194Z,18.45
2023-05-23T01:55:33.123Z,18.50
2023-05-23T01:56:13.212Z,18.55
2023-05-23T01:56:55.121Z,18.54
2023-05-23T01:57:40.163Z,18.43
2023-05-23T01:58:21.140Z,18.55
2023-05-23T01:59:02.015Z,18.45
2023-05-23T01:59:42.121Z,18.37
2023-05-23T02:00:23.237Z,18.49
2023-05-23T02:01:04.167Z,18.50
2023-05-23T02:01:45.345Z,18.43
2023-05-23T02:03:27.258Z,18.41
2023-05-23T02:04:01.209Z,18.29
2023-05-23T02:04:48.118Z,18.27
2023-05-23T02:05:22.228Z,18.34
2023-05-23T02:06:09.124Z,18.43
2023-05-23T02:06:43.226Z,18.42
2023-05-23T02:07:30.108Z,18.33
2023-05-23T02:08:04.211Z,18.43
2023-05-23T02:08:51.101Z,18.23
2023-05-23T02:09:32.207Z,18.33
2023-05-23T02:10:16.115Z,18.33
2023-05-23T02:10:57.187Z,18.33
2023-05-23T02:11:44.201Z,18.24
2023-05-23T02:12:18.234Z,18.25
2023-05-23T02:13:05.082Z,18.27
2023-05-23T02:13:39.224Z,18.18
2023-05-23T02:14:28.108Z,18.20
2023-05-23T02:15:02.189Z,18.25
2023-05-23T02:15:49.103Z,18.11
2023-05-23T02:16:23.357Z,18.23
2023-05-23T02:17:11.178Z,18.21
2023-05-23T02:17:45.317Z,18.20
2023-05-23T02:18:36.091Z,18.22
2023-05-23T02:19:10.516Z,18.22
2023-05-23T02:19:58.096Z,18.27
2023-05-23T02:20:32.184Z,18.33
2023-05-23T02:21:19.102Z,18.31
2023-05-23T02:21:53.175Z,18.16
2023-05-23T02:22:33.161Z,18.31
2023-05-23T02:23:13.191Z,18.10
2023-05-23T02:23:53.088Z,18.11
2023-05-23T02:24:33.164Z,18.18
2023-05-23T02:25:14.134Z,18.28
2023-05-23T02:25:54.159Z,18.05
2023-05-23T02:26:34.072Z,18.08
2023-05-23T02:27:14.178Z,18.01
2023-05-23T02:27:54.098Z,18.08
2023-05-23T02:28:34.188Z,18.17
2023-05-23T02:29:14.119Z,18.19
2023-05-23T02:29:54.252Z,18.23
2023-05-23T02:30:34.094Z,18.20
2023-05-23T02:31:14.207Z,18.12
2023-05-23T02:31:54.079Z,18.00
2023-05-23T02:32:34.255Z,17.96
2023-05-23T02:33:15.134Z,17.94
2023-05-23T02:33:55.165Z,17.76
2023-05-23T02:34:35.066Z,17.56
2023-05-23T02:35:15.166Z,17.60
2023-05-23T02:35:58.085Z,17.73
2023-05-23T02:36:39.328Z,17.68
2023-05-23T02:37:21.104Z,17.59
2023-05-23T02:38:01.262Z,17.71
2023-05-23T02:38:41.119Z,17.62
2023-05-23T02:39:21.151Z,17.55
2023-05-23T02:40:02.094Z,17.70
2023-05-23T02:40:42.154Z,17.74
2023-05-23T02:41:22.067Z,17.79
2023-05-23T02:42:02.839Z,17.77
2023-05-23T02:42:43.095Z,17.68
2023-05-23T02:43:23.174Z,17.73
2023-05-23T02:44:04.088Z,17.67
2023-05-23T02:44:44.154Z,17.53
2023-05-23T02:45:25.072Z,17.60
2023-05-23T02:46:05.303Z,17.52
2023-05-23T02:46:45.193Z,17.51
2023-05-23T02:47:25.384Z,17.57
2023-05-23T02:48:05.181Z,17.59
2023-05-23T02:48:45.434Z,17.68
2023-05-23T02:49:25.105Z,17.64
2023-05-23T02:50:06.436Z,17.65
2023-05-23T02:50:46.061Z,17.73
2023-05-23T02:51:26.313Z,17.60
2023-05-23T02:52:06.077Z,17.47
2023-05-23T02:52:46.226Z,17.67
2023-05-23T02:53:26.066Z,17.60
2023-05-23T02:54:06.251Z,17.68
2023-05-23T02:54:47.059Z,17.72
2023-05-23T02:55:27.694Z,17.73
2023-05-23T02:56:08.086Z,17.68
2023-05-23T02:56:48.220Z,17.72
2023-05-23T02:57:28.064Z,17.77
2023-05-23T02:58:08.221Z,17.80
2023-05-23T02:58:49.063Z,17.78
2023-05-23T02:59:29.138Z,17.75
2023-05-23T03:00:10.099Z,17.85
2023-05-23T03:00:50.466Z,17.77
2023-05-23T03:01:30.061Z,17.92
2023-05-23T03:02:10.377Z,17.93
2023-05-23T03:02:50.184Z,17.90
2023-05-23T03:03:31.534Z,17.77
2023-05-23T03:04:12.068Z,17.91
2023-05-23T03:04:52.143Z,17.86
2023-05-23T03:05:32.070Z,17.90
2023-05-23T03:06:14.489Z,17.98
2023-05-23T03:06:55.040Z,17.78
2023-05-23T03:07:35.142Z,17.92
2023-05-23T03:08:15.060Z,17.85
2023-05-23T03:08:55.576Z,17.89
2023-05-23T03:09:36.057Z,17.94
2023-05-23T03:10:17.198Z,17.91
2023-05-23T03:10:58.072Z,17.85
2023-05-23T03:11:38.213Z,17.83
2023-05-23T03:12:18.025Z,17.78
2023-05-23T03:13:12.067Z,17.71
2023-05-23T03:14:06.073Z,17.47
2023-05-23T03:15:00.054Z,17.64
2023-05-23T03:15:54.106Z,17.70
2023-05-23T03:16:34.135Z,17.72
2023-05-23T03:17:14.389Z,17.68
2023-05-23T03:17:55.097Z,17.63
2023-05-23T03:18:35.169Z,17.63
2023-05-23T03:19:15.084Z,17.61
2023-05-23T03:19:55.118Z,17.64
2023-05-23T03:20:36.012Z,17.73
2023-05-23T03:21:16.130Z,17.74
2023-05-23T03:21:59.060Z,17.77
2023-05-23T03:22:39.162Z,17.83
2023-05-23T03:23:19.030Z,17.87
2023-05-23T03:23:59.100Z,17.86
2023-05-23T03:24:39.018Z,17.88
2023-05-23T03:25:19.120Z,17.88
2023-05-23T03:26:00.030Z,17.89
2023-05-23T03:26:40.106Z,17.93
2023-05-23T03:27:20.027Z,17.83
2023-05-23T03:28:00.165Z,17.87
2023-05-23T03:28:40.068Z,17.88
2023-05-23T03:29:20.141Z,17.93
2023-05-23T03:30:01.030Z,17.89
2023-05-23T03:30:41.135Z,17.93
2023-05-23T03:31:21.102Z,18.04
2023-05-23T03:32:01.113Z,18.06
2023-05-23T03:32:41.110Z,18.07
2023-05-23T03:33:22.153Z,18.01
2023-05-23T03:34:03.047Z,18.01
2023-05-23T03:34:43.194Z,18.04
2023-05-23T03:35:24.049Z,18.02
2023-05-23T03:36:04.141Z,18.11
2023-05-23T03:36:46.039Z,18.04
2023-05-23T03:37:26.121Z,18.13
2023-05-23T03:38:07.052Z,18.16
2023-05-23T03:38:47.088Z,18.02
2023-05-23T03:39:27.012Z,18.10
2023-05-23T03:40:08.376Z,18.08
2023-05-23T03:40:48.007Z,18.10
2023-05-23T03:41:28.109Z,18.05
2023-05-23T03:42:10.042Z,18.09
2023-05-23T03:42:50.147Z,18.11
2023-05-23T03:43:30.044Z,18.13
2023-05-23T03:44:10.086Z,18.20
2023-05-23T03:44:49.997Z,18.18
2023-05-23T03:45:30.137Z,18.09
2023-05-23T03:46:11.107Z,18.05
2023-05-23T03:46:51.096Z,18.12
2023-05-23T03:47:32.017Z,18.18
2023-05-23T03:48:12.480Z,18.19
2023-05-23T03:48:52.015Z,18.16
2023-05-23T03:49:32.132Z,18.15
2023-05-23T03:50:14.024Z,18.28
2023-05-23T03:50:54.151Z,18.28
2023-05-23T03:51:35.011Z,18.36
2023-05-23T03:52:15.141Z,18.37
2023-05-23T03:52:54.991Z,18.30
2023-05-23T03:53:36.653Z,18.29
2023-05-23T03:54:18.052Z,18.35
2023-05-23T03:54:58.132Z,18.28
2023-05-23T03:55:39.199Z,18.31
2023-05-23T03:56:19.145Z,18.34
2023-05-23T03:56:58.992Z,18.13
2023-05-23T03:57:39.082Z,18.21
2023-05-23T03:58:19.995Z,18.17
2023-05-23T03:59:01.370Z,18.19
2023-05-23T03:59:43.000Z,18.26
2023-05-23T04:00:24.084Z,18.37
2023-05-23T04:01:04.056Z,18.25
2023-05-23T04:01:44.130Z,18.27
2023-05-23T04:02:25.061Z,18.24
2023-05-23T04:03:05.166Z,18.33
2023-05-23T04:03:45.009Z,18.25
2023-05-23T04:04:26.133Z,18.28
2023-05-23T04:05:07.018Z,18.41
2023-05-23T04:05:47.067Z,18.35
2023-05-23T04:06:28.980Z,18.41
2023-05-23T04:07:09.924Z,18.41
2023-05-23T04:07:50.989Z,18.53
2023-05-23T04:08:33.948Z,18.43
2023-05-23T04:09:13.989Z,18.43
2023-05-23T04:09:54.110Z,18.59
2023-05-23T04:10:35.009Z,18.65
2023-05-23T04:11:15.088Z,18.53
2023-05-23T04:11:55.982Z,18.65
2023-05-23T04:12:37.060Z,18.63
2023-05-23T04:13:18.011Z,18.55
2023-05-23T04:13:58.291Z,18.57
2023-05-23T04:14:40.005Z,18.58
2023-05-23T04:15:21.460Z,18.62
2023-05-23T04:16:04.083Z,18.66
2023-05-23T04:16:45.208Z,18.61
2023-05-23T04:17:26.028Z,18.63
2023-05-23T04:18:09.227Z,18.68
2023-05-23T04:18:49.988Z,18.80
2023-05-23T04:19:30.142Z,18.84
2023-05-23T04:20:14.003Z,18.73
2023-05-23T04:20:55.074Z,18.82
2023-05-23T04:21:35.076Z,18.91
2023-05-23T04:22:15.057Z,18.85
2023-05-23T04:22:55.988Z,18.81
2023-05-23T04:23:36.772Z,18.87
2023-05-23T04:24:17.971Z,18.99
2023-05-23T04:24:58.287Z,18.82
2023-05-23T04:25:37.978Z,18.95
2023-05-23T04:26:18.067Z,18.95
2023-05-23T04:26:59.012Z,19.01
2023-05-23T04:27:40.628Z,18.98
2023-05-23T04:28:24.045Z,18.94
2023-05-23T04:29:04.355Z,18.95
2023-05-23T04:29:44.980Z,18.88
2023-05-23T04:30:25.060Z,18.90
2023-05-23T04:31:06.025Z,18.96
2023-05-23T04:31:46.387Z,18.99
2023-05-23T04:32:29.019Z,19.08
2023-05-23T04:33:10.310Z,18.90
2023-05-23T04:33:50.035Z,19.01
2023-05-23T04:34:31.029Z,19.04
2023-05-23T04:35:14.311Z,19.12
2023-05-23T04:35:55.082Z,19.13
2023-05-23T04:36:37.005Z,19.18
2023-05-23T04:37:17.482Z,19.22
2023-05-23T04:38:03.005Z,19.17
2023-05-23T04:38:43.112Z,19.35
2023-05-23T04:39:23.001Z,19.21
2023-05-23T04:40:03.863Z,19.44
2023-05-23T04:40:44.048Z,19.27
2023-05-23T04:41:24.447Z,19.33
2023-05-23T04:42:06.056Z,19.39
2023-05-23T04:42:46.366Z,19.43
2023-05-23T04:43:27.015Z,19.45
2023-05-23T04:44:12.068Z,19.48
2023-05-23T04:44:51.982Z,19.52
2023-05-23T04:45:33.117Z,19.42
2023-05-23T04:46:13.024Z,19.17
2023-05-23T04:46:53.376Z,19.26
2023-05-23T04:47:37.055Z,19.36
2023-05-23T04:48:21.495Z,19.28
2023-05-23T04:49:03.027Z,19.35
2023-05-23T04:49:44.118Z,19.18
2023-05-23T04:50:24.969Z,19.19
2023-05-23T04:51:08.496Z,19.34
2023-05-23T04:51:49.993Z,19.29
2023-05-23T04:52:33.253Z,19.31
2023-05-23T04:53:13.039Z,19.45
2023-05-23T04:53:54.716Z,19.51
2023-05-23T04:54:35.021Z,19.55
2023-05-23T04:55:16.199Z,19.56
2023-05-23T04:55:56.999Z,19.67
2023-05-23T04:56:37.126Z,19.64
2023-05-23T04:57:19.007Z,19.71
2023-05-23T04:57:59.068Z,19.70
2023-05-23T04:58:40.026Z,19.85
2023-05-23T04:59:20.103Z,19.80
2023-05-23T05:00:01.046Z,19.84
2023-05-23T05:00:41.435Z,19.75
2023-05-23T05:01:24.220Z,19.76
2023-05-23T05:02:06.065Z,19.78
2023-05-23T05:02:46.040Z,19.65
2023-05-23T05:03:26.493Z,19.71
2023-05-23T05:04:08.045Z,19.69
2023-05-23T05:04:48.059Z,19.79
2023-05-23T05:05:28.012Z,19.80
2023-05-23T05:06:10.120Z,19.79
2023-05-23T05:06:49.974Z,19.84
2023-05-23T05:07:30.108Z,19.80
2023-05-23T05:08:10.996Z,19.95
2023-05-23T05:08:52.491Z,19.87
2023-05-23T05:09:32.979Z,19.89
2023-05-23T05:10:16.946Z,19.82
2023-05-23T05:10:57.965Z,19.91
2023-05-23T05:11:38.047Z,19.98
2023-05-23T05:12:18.988Z,20.00
2023-05-23T05:12:59.103Z,20.03
2023-05-23T05:13:39.157Z,20.07
2023-05-23T05:14:19.137Z,20.10
2023-05-23T05:14:59.993Z,20.01
2023-05-23T05:15:40.082Z,20.08
2023-05-23T05:16:21.043Z,20.09
2023-05-23T05:17:02.906Z,20.18
2023-05-23T05:17:46.129Z,20.17
2023-05-23T05:18:29.309Z,20.25
2023-05-23T05:19:09.049Z,20.21
2023-05-23T05:19:49.061Z,20.21
2023-05-23T05:20:29.995Z,20.31
2023-05-23T05:21:10.021Z,20.35
2023-05-23T05:21:50.015Z,20.26
2023-05-23T05:22:30.044Z,20.33
2023-05-23T05:23:09.952Z,20.38
2023-05-23T05:23:50.032Z,20.42
2023-05-23T05:24:30.954Z,20.49
2023-05-23T05:25:12.099Z,20.41
2023-05-23T05:25:52.979Z,20.44
2023-05-23T05:26:33.578Z,20.45
2023-05-23T05:27:15.980Z,20.34
2023-05-23T05:27:56.029Z,20.40
2023-05-23T05:28:36.959Z,20.28
2023-05-23T05:29:17.107Z,20.30
2023-05-23T05:29:56.961Z,20.34
2023-05-23T05:30:37.518Z,20.32
2023-05-23T05:31:22.037Z,20.41
2023-05-23T05:32:03.348Z,20.45
2023-05-23T05:32:43.996Z,20.45
2023-05-23T05:33:19.032Z,20.50
2023-05-23T05:34:05.940Z,20.59
2023-05-23T05:34:39.766Z,20.51
2023-05-23T05:35:26.968Z,20.66
2023-05-23T05:36:00.732Z,20.62
2023-05-23T05:36:52.947Z,20.67
2023-05-23T05:37:26.841Z,20.76
2023-05-23T05:38:11.044Z,20.75
2023-05-23T05:38:45.058Z,20.81
2023-05-23T05:39:18.812Z,20.73
2023-05-23T05:40:00.966Z,20.79
2023-05-23T05:40:35.088Z,20.74
2023-05-23T05:41:09.257Z,20.66
2023-05-23T05:41:49.965Z,20.56
2023-05-23T05:42:24.061Z,20.66
2023-05-23T05:42:57.709Z,20.68
2023-05-23T05:43:37.996Z,20.73
2023-05-23T05:44:12.057Z,20.86
2023-05-23T05:44:45.798Z,20.93
2023-05-23T05:45:25.979Z,20.90
2023-05-23T05:46:00.073Z,20.77
2023-05-23T05:46:34.026Z,20.90
2023-05-23T05:47:13.987Z,20.94
2023-05-23T05:47:48.078Z,20.86
2023-05-23T05:48:22.692Z,20.94
2023-05-23T05:49:02.971Z,20.91
2023-05-23T05:49:37.008Z,20.98
2023-05-23T05:50:11.266Z,21.04
2023-05-23T05:50:51.953Z,21.02
2023-05-23T05:51:28.201Z,21.05
2023-05-23T05:52:04.662Z,21.09
2023-05-23T05:52:45.950Z,20.99
2023-05-23T05:53:21.041Z,21.06
2023-05-23T05:53:57.829Z,20.95
2023-05-23T05:54:37.965Z,20.94
2023-05-23T05:55:17.052Z,21.10
2023-05-23T05:55:51.648Z,21.13
2023-05-23T05:56:33.232Z,21.04
2023-05-23T05:57:07.112Z,21.13
2023-05-23T05:57:41.926Z,21.17
2023-05-23T05:58:21.933Z,21.14
2023-05-23T05:58:57.280Z,21.15
2023-05-23T05:59:32.599Z,21.29
2023-05-23T06:00:20.976Z,21.34
2023-05-23T06:00:55.068Z,21.35
2023-05-23T06:01:28.771Z,21.28
2023-05-23T06:02:09.965Z,21.36
2023-05-23T06:02:44.228Z,21.45
2023-05-23T06:03:21.382Z,21.29
2023-05-23T06:04:03.256Z,21.35
2023-05-23T06:04:38.115Z,21.56
2023-05-23T06:05:16.629Z,21.52
2023-05-23T06:05:56.973Z,21.40
2023-05-23T06:06:32.302Z,21.54
2023-05-23T06:07:06.679Z,21.63
2023-05-23T06:07:46.920Z,21.67
2023-05-23T06:08:21.034Z,21.61
2023-05-23T06:08:54.710Z,21.77
2023-05-23T06:09:43.891Z,21.82
2023-05-23T06:10:18.032Z,21.83
2023-05-23T06:11:04.957Z,21.80
2023-05-23T06:11:41.153Z,21.81
2023-05-23T06:12:27.926Z,21.90
2023-05-23T06:13:02.150Z,21.88
2023-05-23T06:13:49.923Z,21.86
2023-05-23T06:14:30.016Z,21.82
2023-05-23T06:15:15.154Z,21.89
2023-05-23T06:15:55.076Z,21.97
2023-05-23T06:16:34.921Z,21.87
2023-05-23T06:17:16.387Z,21.97
2023-05-23T06:17:59.990Z,22.13
2023-05-23T06:18:41.368Z,22.13
2023-05-23T06:19:22.010Z,22.15
2023-05-23T06:20:02.056Z,22.23
2023-05-23T06:20:42.096Z,22.21
2023-05-23T06:21:22.116Z,22.15
2023-05-23T06:22:01.968Z,22.15
2023-05-23T06:22:43.048Z,22.25
2023-05-23T06:23:22.910Z,22.22
2023-05-23T06:24:03.030Z,22.15
2023-05-23T06:24:51.433Z,22.24
2023-05-23T06:25:36.041Z,22.14
2023-05-23T06:26:16.932Z,22.24
2023-05-23T06:26:57.981Z,22.36
2023-05-23T06:27:37.918Z,22.20
2023-05-23T06:28:17.985Z,22.28
2023-05-23T06:28:57.889Z,22.35
2023-05-23T06:29:38.020Z,22.41
2023-05-23T06:30:18.937Z,22.29
2023-05-23T06:30:59.996Z,22.41
2023-05-23T06:31:39.981Z,22.41
2023-05-23T06:32:20.053Z,22.51
2023-05-23T06:32:59.981Z,22.60
2023-05-23T06:33:43.216Z,22.42
2023-05-23T06:34:23.907Z,22.45
2023-05-23T06:35:05.010Z,22.58
2023-05-23T06:35:44.939Z,22.61
2023-05-23T06:36:30.401Z,22.58
2023-05-23T06:37:11.915Z,22.62
2023-05-23T06:37:52.047Z,22.63
2023-05-23T06:38:35.942Z,22.55
2023-05-23T06:39:16.978Z,22.58
2023-05-23T06:39:56.895Z,22.51
2023-05-23T06:40:37.011Z,22.64
2023-05-23T06:41:16.912Z,22.69
2023-05-23T06:41:57.106Z,22.71
2023-05-23T06:42:45.901Z,22.70
2023-05-23T06:43:26.980Z,22.76
2023-05-23T06:44:07.005Z,22.70
2023-05-23T06:44:46.983Z,22.84
2023-05-23T06:45:26.909Z,22.79
2023-05-23T06:46:07.128Z,22.82
2023-05-23T06:46:49.879Z,22.92
2023-05-23T06:47:31.014Z,22.90
2023-05-23T06:48:11.903Z,22.86
2023-05-23T06:49:02.652Z,22.83
2023-05-23T06:49:46.919Z,22.97
2023-05-23T06:50:29.899Z,22.95
2023-05-23T06:51:09.906Z,22.92
2023-05-23T06:51:51.153Z,22.94
2023-05-23T06:52:31.880Z,22.93
2023-05-23T06:53:12.022Z,22.89
2023-05-23T06:53:51.885Z,22.86
2023-05-23T06:54:31.985Z,22.95
2023-05-23T06:55:12.883Z,23.01
2023-05-23T06:55:54.013Z,23.15
2023-05-23T06:56:33.888Z,23.15
2023-05-23T06:57:14.037Z,23.22
2023-05-23T06:57:53.915Z,23.24
2023-05-23T06:58:37.410Z,23.36
2023-05-23T06:59:17.897Z,23.21
2023-05-23T06:59:58.990Z,23.26
2023-05-23T07:00:39.030Z,23.36
2023-05-23T07:01:18.982Z,23.38
2023-05-23T07:02:01.900Z,23.24
2023-05-23T07:02:45.808Z,23.36
2023-05-23T07:03:25.905Z,23.31
2023-05-23T07:04:07.014Z,23.45
2023-05-23T07:04:46.886Z,23.52
2023-05-23T07:05:27.573Z,23.49
2023-05-23T07:06:07.919Z,23.40
2023-05-23T07:06:48.038Z,23.45
2023-05-23T07:07:30.284Z,23.50
2023-05-23T07:08:11.434Z,23.49
2023-05-23T07:08:54.905Z,23.58
2023-05-23T07:09:34.999Z,23.56
2023-05-23T07:10:15.908Z,23.65
2023-05-23T07:10:55.992Z,23.56
2023-05-23T07:11:35.894Z,23.68
2023-05-23T07:12:16.969Z,23.64
2023-05-23T07:12:56.934Z,23.71
2023-05-23T07:13:37.006Z,23.71
2023-05-23T07:14:23.934Z,23.69
2023-05-23T07:14:57.965Z,23.73
2023-05-23T07:15:45.188Z,23.79
2023-05-23T07:16:20.121Z,23.79
2023-05-23T07:16:59.933Z,23.80
2023-05-23T07:17:40.040Z,23.78
2023-05-23T07:18:20.894Z,23.72
2023-05-23T07:19:05.426Z,23.70
2023-05-23T07:19:45.893Z,23.68
2023-05-23T07:20:27.000Z,23.75
2023-05-23T07:21:06.853Z,23.84
2023-05-23T07:21:49.931Z,23.88
2023-05-23T07:22:29.950Z,23.78
2023-05-23T07:23:09.969Z,23.91
2023-05-23T07:23:49.888Z,23.92
2023-05-23T07:24:31.031Z,23.95
2023-05-23T07:25:12.896Z,23.95
2023-05-23T07:26:02.023Z,23.80
2023-05-23T07:26:42.845Z,23.82
2023-05-23T07:27:22.957Z,23.91
2023-05-23T07:28:03.855Z,23.95
2023-05-23T07:28:44.009Z,23.95
2023-05-23T07:29:23.854Z,24.04
2023-05-23T07:30:04.646Z,24.05
2023-05-23T07:30:45.939Z,23.97
2023-05-23T07:31:26.008Z,23.91
2023-05-23T07:32:06.851Z,24.01
2023-05-23T07:32:48.319Z,24.01
2023-05-23T07:33:29.031Z,23.91
2023-05-23T07:34:10.917Z,23.87
2023-05-23T07:34:50.857Z,24.05
2023-05-23T07:35:32.976Z,23.95
2023-05-23T07:36:13.852Z,23.87
2023-05-23T07:36:53.964Z,23.97
2023-05-23T07:37:33.844Z,24.03
2023-05-23T07:38:13.943Z,23.92
2023-05-23T07:38:53.855Z,23.93
2023-05-23T07:39:36.726Z,23.99
2023-05-23T07:40:17.831Z,23.89
2023-05-23T07:41:10.753Z,24.03
2023-05-23T07:41:51.860Z,24.11
2023-05-23T07:42:37.382Z,24.10
2023-05-23T07:43:17.856Z,24.19
2023-05-23T07:44:04.862Z,24.17
2023-05-23T07:44:58.860Z,24.29
2023-05-23T07:45:52.893Z,24.24
2023-05-23T07:46:46.899Z,24.08
2023-05-23T07:47:40.910Z,24.40
2023-05-23T07:48:34.865Z,24.31
2023-05-23T07:49:21.868Z,24.35
2023-05-23T07:49:56.183Z,24.42
2023-05-23T07:50:42.852Z,24.43
2023-05-23T07:51:18.872Z,24.40
2023-05-23T07:52:07.826Z,24.40
2023-05-23T07:52:42.618Z,24.43
2023-05-23T07:53:29.827Z,24.49
2023-05-23T07:54:04.120Z,24.41
2023-05-23T07:54:43.909Z,24.36
2023-05-23T07:55:24.449Z,24.24
2023-05-23T07:56:04.847Z,24.28
2023-05-23T07:56:45.192Z,24.16
2023-05-23T07:57:25.856Z,24.15
2023-05-23T07:58:06.025Z,24.13
2023-05-23T07:58:45.825Z,24.25
2023-05-23T07:59:26.949Z,24.23
2023-05-23T08:00:06.834Z,24.32
2023-05-23T08:00:46.946Z,24.12
2023-05-23T08:01:29.852Z,24.24
2023-05-23T08:02:09.965Z,24.24
2023-05-23T08:02:49.856Z,24.38
2023-05-23T08:03:32.932Z,24.40
2023-05-23T08:04:13.846Z,24.48
2023-05-23T08:04:55.149Z,24.45
2023-05-23T08:05:35.867Z,24.50
2023-05-23T08:06:15.899Z,24.54
2023-05-23T08:07:38.907Z,24.45
2023-05-23T08:08:18.844Z,24.55
2023-05-23T08:08:58.930Z,24.54
2023-05-23T08:09:39.837Z,24.47
2023-05-23T08:10:19.891Z,24.50
2023-05-23T08:10:59.835Z,24.48
2023-05-23T08:11:40.010Z,24.55
2023-05-23T08:12:19.838Z,24.53
2023-05-23T08:13:00.975Z,24.54
2023-05-23T08:13:41.823Z,24.55
2023-05-23T08:14:49.772Z,24.51
2023-05-23T08:15:46.861Z,24.59
2023-05-23T08:16:26.902Z,24.49
2023-05-23T08:17:06.984Z,24.63
2023-05-23T08:17:47.897Z,24.59
2023-05-23T08:18:28.501Z,24.55
2023-05-23T08:19:12.901Z,24.56
2023-05-23T08:19:52.899Z,24.62
2023-05-23T08:20:37.966Z,24.51
2023-05-23T08:21:18.962Z,24.64
2023-05-23T08:21:59.871Z,24.73
2023-05-23T08:22:39.907Z,24.61
2023-05-23T08:23:20.835Z,24.69
2023-05-23T08:24:00.913Z,24.75
2023-05-23T08:24:40.814Z,24.79
2023-05-23T08:25:21.934Z,24.89
2023-05-23T08:26:03.818Z,24.89
2023-05-23T08:26:43.990Z,24.88
2023-05-23T08:27:23.895Z,24.83
2023-05-23T08:28:04.937Z,24.86
2023-05-23T08:28:44.815Z,24.94
2023-05-23T08:29:24.903Z,24.97
2023-05-23T08:30:05.826Z,24.92
2023-05-23T08:30:45.945Z,24.92
2023-05-23T08:31:25.829Z,25.02
2023-05-23T08:32:05.953Z,24.95
2023-05-23T08:32:45.934Z,25.01
2023-05-23T08:33:25.919Z,24.96
2023-05-23T08:34:06.844Z,24.91
2023-05-23T08:34:49.598Z,25.08
2023-05-23T08:35:30.818Z,25.08
2023-05-23T08:36:10.947Z,25.09
2023-05-23T08:36:51.848Z,25.01
2023-05-23T08:37:33.001Z,25.01
2023-05-23T08:38:16.892Z,24.98
2023-05-23T08:38:57.889Z,24.98
2023-05-23T08:39:37.811Z,24.84
2023-05-23T08:40:26.096Z,24.86
2023-05-23T08:41:08.798Z,24.94
2023-05-23T08:41:48.909Z,24.90
2023-05-23T08:42:29.846Z,25.05
2023-05-23T08:43:10.585Z,24.87
2023-05-23T08:43:51.849Z,24.83
2023-05-23T08:44:31.902Z,24.80
2023-05-23T08:45:12.813Z,25.00
2023-05-23T08:45:53.100Z,24.90
2023-05-23T08:46:33.838Z,25.08
2023-05-23T08:47:15.945Z,25.01
2023-05-23T08:47:58.899Z,24.98
2023-05-23T08:48:40.149Z,25.01
2023-05-23T08:49:20.829Z,24.98
2023-05-23T08:50:02.059Z,24.95
2023-05-23T08:50:44.797Z,24.94
2023-05-23T08:51:25.922Z,25.03
2023-05-23T08:52:10.805Z,25.01
2023-05-23T08:53:08.599Z,25.15
2023-05-23T08:53:53.817Z,25.11
2023-05-23T08:54:40.821Z,25.20
2023-05-23T08:55:37.810Z,25.23
2023-05-23T08:56:32.841Z,25.23
2023-05-23T08:57:26.774Z,25.28
2023-05-23T08:58:20.794Z,25.20